createdAt,value
2022-12-12T00:00:43.859Z,2.35
2022-12-12T00:03:11.326Z,4.45
2022-12-12T00:05:38.655Z,4.05
2022-12-12T00:08:05.819Z,3.20
2022-12-12T00:10:33.785Z,4.47
2022-12-12T00:13:00.678Z,3.70
2022-12-12T00:15:29.788Z,3.40
2022-12-12T00:17:56.673Z,2.80
2022-12-12T00:20:23.656Z,1.92
2022-12-12T00:22:50.483Z,2.40
2022-12-12T00:25:17.414Z,1.50
2022-12-12T00:27:44.378Z,3.65
2022-12-12T00:30:11.826Z,3.78
2022-12-12T00:32:38.668Z,3.85
2022-12-12T00:35:06.304Z,0.55
2022-12-12T00:37:33.154Z,2.67
2022-12-12T00:40:00.060Z,2.05
2022-12-12T00:42:27.287Z,1.58
2022-12-12T00:44:54.281Z,2.28
2022-12-12T00:47:21.083Z,1.52
2022-12-12T00:49:47.893Z,1.52
2022-12-12T00:52:14.734Z,0.95
2022-12-12T00:54:41.604Z,1.42
2022-12-12T00:57:08.506Z,2.17
2022-12-12T00:59:35.384Z,2.30
2022-12-12T01:02:02.240Z,1.60
2022-12-12T01:04:29.083Z,3.70
2022-12-12T01:06:55.939Z,4.72
2022-12-12T01:09:22.811Z,1.85
2022-12-12T01:11:49.597Z,1.42
2022-12-12T01:14:16.443Z,1.95
2022-12-12T01:16:43.443Z,2.50
2022-12-12T01:19:10.270Z,2.75
2022-12-12T01:21:37.303Z,7.50
2022-12-12T01:24:04.784Z,6.80
2022-12-12T01:26:31.751Z,5.85
2022-12-12T01:28:58.646Z,6.55
2022-12-12T01:31:25.649Z,3.70
2022-12-12T01:33:52.527Z,7.53
2022-12-12T01:36:22.642Z,6.30
2022-12-12T01:38:52.979Z,7.47
2022-12-12T01:41:21.303Z,5.10
2022-12-12T01:43:48.922Z,6.00
2022-12-12T01:46:21.736Z,3.35
2022-12-12T01:49:17.194Z,1.88
2022-12-12T01:51:45.694Z,1.90
2022-12-12T01:54:21.533Z,2.00
2022-12-12T01:56:49.610Z,3.00
2022-12-12T01:59:19.489Z,2.70
2022-12-12T02:01:46.946Z,1.95
2022-12-12T02:04:17.118Z,1.45
2022-12-12T02:06:44.317Z,2.90
2022-12-12T02:09:14.035Z,1.98
2022-12-12T02:11:49.227Z,4.20
2022-12-12T02:14:22.674Z,5.00
2022-12-12T02:17:55.127Z,6.03
2022-12-12T02:21:18.926Z,5.03
2022-12-12T02:24:30.302Z,2.47
2022-12-12T02:27:58.755Z,5.55
2022-12-12T02:30:59.626Z,5.20
2022-12-12T02:34:11.177Z,5.65
2022-12-12T02:37:03.881Z,5.95
2022-12-12T02:40:07.158Z,5.47
2022-12-12T02:43:00.749Z,6.60
2022-12-12T02:45:37.726Z,3.85
2022-12-12T02:48:19.984Z,5.18
2022-12-12T02:50:51.804Z,6.22
2022-12-12T02:53:23.936Z,5.68
2022-12-12T02:56:02.694Z,7.25
2022-12-12T02:58:30.425Z,5.72
2022-12-12T03:01:30.091Z,4.95
2022-12-12T03:04:24.999Z,2.85
2022-12-12T03:07:24.829Z,3.38
2022-12-12T03:10:13.738Z,4.25
2022-12-12T03:13:23.249Z,4.15
2022-12-12T03:16:18.944Z,5.38
2022-12-12T03:19:13.732Z,5.53
2022-12-12T03:22:03.712Z,6.50
2022-12-12T03:24:52.451Z,4.90
2022-12-12T03:27:36.267Z,4.55
2022-12-12T03:30:11.517Z,5.22
2022-12-12T03:32:48.404Z,6.47
2022-12-12T03:35:39.785Z,4.38
2022-12-12T03:38:17.872Z,3.35
2022-12-12T03:40:50.275Z,4.32
2022-12-12T03:43:22.704Z,2.75
2022-12-12T03:46:09.790Z,1.95
2022-12-12T03:49:00.729Z,0.80
2022-12-12T03:51:35.010Z,2.10
2022-12-12T03:54:18.231Z,2.00
2022-12-12T03:57:11.798Z,2.30
2022-12-12T04:00:08.962Z,1.00
2022-12-12T04:03:05.674Z,1.88
2022-12-12T04:06:13.098Z,1.15
2022-12-12T04:09:00.521Z,3.25
2022-12-12T04:12:10.645Z,2.92
2022-12-12T04:15:19.613Z,0.60
2022-12-12T04:18:26.768Z,1.42
2022-12-12T04:21:52.717Z,2.13
2022-12-12T04:24:51.124Z,4.93
2022-12-12T04:27:46.821Z,1.83
2022-12-12T04:30:15.939Z,0.63
2022-12-12T04:33:01.892Z,1.52
2022-12-12T04:35:39.506Z,1.40
2022-12-12T04:38:22.735Z,1.92
2022-12-12T04:40:57.534Z,1.35
2022-12-12T04:43:37.338Z,1.73
2022-12-12T04:46:13.630Z,3.75
2022-12-12T04:49:07.134Z,3.40
2022-12-12T04:51:42.483Z,1.73
2022-12-12T04:54:31.364Z,1.75
2022-12-12T04:57:01.905Z,1.88
2022-12-12T04:59:29.638Z,1.13
2022-12-12T05:02:11.038Z,1.52
2022-12-12T05:04:53.343Z,2.00
2022-12-12T05:07:43.386Z,2.65
2022-12-12T05:10:20.124Z,0.32
2022-12-12T05:12:53.837Z,0.88
2022-12-12T05:15:21.172Z,1.75
2022-12-12T05:18:02.070Z,1.70
2022-12-12T05:20:30.676Z,4.20
2022-12-12T05:22:57.548Z,4.90
2022-12-12T05:25:24.489Z,2.90
2022-12-12T05:27:51.362Z,3.70
2022-12-12T05:30:18.288Z,5.00
2022-12-12T05:32:45.134Z,4.82
2022-12-12T05:35:12.447Z,4.50
2022-12-12T05:37:39.592Z,2.70
2022-12-12T05:40:10.962Z,2.05
2022-12-12T05:42:38.096Z,1.75
2022-12-12T05:45:07.331Z,1.83
2022-12-12T05:47:34.297Z,2.00
2022-12-12T05:50:01.613Z,1.85
2022-12-12T05:52:28.479Z,2.95
2022-12-12T05:54:55.521Z,3.65
2022-12-12T05:57:22.782Z,1.85
2022-12-12T05:59:49.733Z,0.98
2022-12-12T06:02:17.172Z,2.28
2022-12-12T06:04:44.512Z,2.35
2022-12-12T06:07:11.404Z,2.58
2022-12-12T06:09:38.336Z,2.33
2022-12-12T06:12:05.513Z,1.50
2022-12-12T06:14:32.298Z,1.00
2022-12-12T06:16:59.216Z,0.60
2022-12-12T06:19:26.069Z,1.50
2022-12-12T06:21:52.898Z,1.38
2022-12-12T06:24:20.120Z,2.63
2022-12-12T06:26:47.053Z,1.38
2022-12-12T06:29:14.864Z,3.40
2022-12-12T06:31:41.985Z,0.82
2022-12-12T06:34:08.868Z,1.80
2022-12-12T06:36:36.667Z,2.35
2022-12-12T06:39:04.290Z,1.80
2022-12-12T06:41:32.325Z,1.13
2022-12-12T06:43:59.458Z,2.05
2022-12-12T06:46:29.322Z,0.85
2022-12-12T06:48:57.076Z,0.75
2022-12-12T06:51:28.226Z,2.28
2022-12-12T06:53:56.700Z,1.20
2022-12-12T06:56:26.486Z,1.70
2022-12-12T06:58:54.061Z,1.10
2022-12-12T07:01:23.327Z,1.50
2022-12-12T07:03:52.146Z,2.50
2022-12-12T07:06:21.599Z,2.63
2022-12-12T07:08:49.354Z,2.10
2022-12-12T07:11:20.390Z,1.38
2022-12-12T07:13:47.483Z,1.75
2022-12-12T07:16:15.302Z,2.78
2022-12-12T07:18:42.714Z,2.00
2022-12-12T07:21:13.966Z,0.73
2022-12-12T07:23:41.027Z,2.08
2022-12-12T07:26:14.503Z,2.35
2022-12-12T07:28:41.816Z,1.50
2022-12-12T07:31:13.923Z,1.63
2022-12-12T07:33:44.153Z,1.50
2022-12-12T07:36:13.386Z,1.55
2022-12-12T07:38:40.567Z,2.20
2022-12-12T07:41:12.035Z,1.33
2022-12-12T07:43:44.341Z,1.45
2022-12-12T07:46:20.147Z,1.73
2022-12-12T07:48:47.743Z,0.80
2022-12-12T07:51:15.343Z,1.42
2022-12-12T07:53:42.662Z,2.45
2022-12-12T07:56:13.134Z,1.13
2022-12-12T07:58:40.543Z,1.17
2022-12-12T08:01:21.452Z,0.70
2022-12-12T08:03:49.856Z,1.88
2022-12-12T08:06:18.897Z,1.58
2022-12-12T08:08:47.417Z,2.17
2022-12-12T08:11:19.474Z,2.03
2022-12-12T08:13:46.781Z,0.95
2022-12-12T08:16:26.655Z,0.90
2022-12-12T08:18:56.231Z,0.30
2022-12-12T08:21:26.098Z,0.20
2022-12-12T08:24:02.493Z,1.05
2022-12-12T08:26:30.457Z,0.40
2022-12-12T08:28:57.776Z,0.30
2022-12-12T08:31:25.898Z,0.90
2022-12-12T08:33:53.245Z,1.40
2022-12-12T08:36:26.715Z,0.85
2022-12-12T08:38:53.572Z,1.17
2022-12-12T08:41:28.419Z,0.38
2022-12-12T08:43:55.355Z,0.57
2022-12-12T08:46:23.262Z,0.82
2022-12-12T08:48:50.339Z,1.85
2022-12-12T08:51:18.532Z,2.28
2022-12-12T08:53:47.085Z,2.70
2022-12-12T08:56:15.071Z,0.35
2022-12-12T08:58:43.801Z,0.50
2022-12-12T09:01:16.141Z,0.40
2022-12-12T09:03:43.087Z,0.95
2022-12-12T09:06:10.894Z,1.35
2022-12-12T09:08:38.952Z,0.63
2022-12-12T09:11:06.388Z,1.13
2022-12-12T09:13:33.730Z,2.25
2022-12-12T09:16:00.728Z,1.40
2022-12-12T09:18:28.324Z,0.77
2022-12-12T09:20:59.005Z,0.80
2022-12-12T09:23:28.681Z,2.90
2022-12-12T09:25:55.833Z,0.65
2022-12-12T09:28:25.391Z,0.50
2022-12-12T09:30:52.374Z,2.25
2022-12-12T09:33:19.992Z,1.17
2022-12-12T09:35:46.942Z,0.80
2022-12-12T09:38:15.014Z,1.45
2022-12-12T09:41:10.894Z,0.88
2022-12-12T09:43:39.475Z,0.60
2022-12-12T09:46:25.930Z,0.60
2022-12-12T09:48:53.972Z,0.40
2022-12-12T09:51:20.799Z,1.27
2022-12-12T09:53:47.813Z,2.75
2022-12-12T09:56:44.755Z,4.47
2022-12-12T09:59:30.717Z,1.50
2022-12-12T10:02:21.929Z,1.98
2022-12-12T10:05:28.461Z,1.20
2022-12-12T10:08:21.882Z,1.13
2022-12-12T10:13:31.916Z,0.30
2022-12-12T10:16:12.764Z,2.15
2022-12-12T10:18:48.440Z,1.38
2022-12-12T10:21:23.769Z,0.95
2022-12-12T10:24:02.162Z,2.00
2022-12-12T10:26:30.793Z,0.43
2022-12-12T10:29:22.066Z,1.10
2022-12-12T10:32:42.326Z,0.80
2022-12-12T10:35:29.203Z,2.30
2022-12-12T10:38:41.572Z,1.35
2022-12-12T10:41:36.261Z,2.70
2022-12-12T10:44:52.262Z,0.50
2022-12-12T10:47:19.388Z,2.33
2022-12-12T10:49:46.237Z,1.05
2022-12-12T10:52:22.685Z,0.47
2022-12-12T10:55:00.075Z,0.30
2022-12-12T10:57:29.551Z,1.42
2022-12-12T10:59:58.593Z,1.60
2022-12-12T11:02:39.866Z,0.88
2022-12-12T11:05:17.563Z,0.93
2022-12-12T11:08:07.899Z,1.60
2022-12-12T11:10:38.361Z,0.93
2022-12-12T11:13:11.345Z,1.20
2022-12-12T11:16:13.764Z,1.10
2022-12-12T11:18:41.138Z,2.45
2022-12-12T11:21:10.009Z,2.10
2022-12-12T11:23:55.515Z,3.20
2022-12-12T11:26:22.765Z,5.47
2022-12-12T11:28:59.802Z,4.22
2022-12-12T11:31:31.774Z,5.40
2022-12-12T11:34:06.265Z,3.95
2022-12-12T11:36:37.616Z,4.72
2022-12-12T11:39:28.839Z,2.70
2022-12-12T11:42:16.999Z,2.75
2022-12-12T11:44:45.642Z,4.72
2022-12-12T11:47:23.959Z,4.82
2022-12-12T11:50:00.234Z,2.80
2022-12-12T11:52:32.868Z,5.03
2022-12-12T11:55:00.764Z,1.95
2022-12-12T11:57:33.496Z,5.93
2022-12-12T12:00:11.887Z,1.48
2022-12-12T12:03:15.134Z,7.95
2022-12-12T12:06:02.295Z,0.93
2022-12-12T12:08:58.895Z,1.20
2022-12-12T12:11:45.678Z,10.35
2022-12-12T12:14:36.511Z,7.65
2022-12-12T12:17:16.093Z,6.78
2022-12-12T12:20:16.751Z,6.85
2022-12-12T12:23:30.498Z,0.70
2022-12-12T12:26:42.051Z,1.85
2022-12-12T12:29:57.073Z,2.83
2022-12-12T12:32:58.893Z,4.80
2022-12-12T12:35:32.276Z,1.98
2022-12-12T12:38:20.963Z,4.35
2022-12-12T12:41:24.154Z,0.30
2022-12-12T12:44:34.156Z,8.70
2022-12-12T12:47:13.313Z,4.55
2022-12-12T12:50:06.162Z,6.10
2022-12-12T12:52:46.097Z,7.10
2022-12-12T12:55:21.373Z,6.35
2022-12-12T12:57:50.579Z,5.63
2022-12-12T13:00:23.679Z,6.32
2022-12-12T13:03:07.786Z,5.55
2022-12-12T13:05:53.000Z,3.40
2022-12-12T13:08:34.866Z,3.50
2022-12-12T13:11:14.838Z,7.18
2022-12-12T13:13:44.917Z,7.30
2022-12-12T13:16:18.487Z,6.25
2022-12-12T13:18:50.551Z,3.70
2022-12-12T13:21:40.935Z,6.00
2022-12-12T13:24:28.262Z,6.03
2022-12-12T13:27:21.408Z,5.25
2022-12-12T13:29:53.819Z,6.93
2022-12-12T13:32:23.668Z,4.03
2022-12-12T13:34:59.680Z,4.00
2022-12-12T13:37:29.730Z,6.20
2022-12-12T13:40:07.128Z,5.35
2022-12-12T13:43:05.719Z,6.13
2022-12-12T13:45:39.171Z,6.55
2022-12-12T13:48:34.185Z,8.60
2022-12-12T13:51:30.227Z,7.35
2022-12-12T13:54:13.669Z,7.80
2022-12-12T13:56:52.898Z,6.43
2022-12-12T13:59:22.421Z,7.10
2022-12-12T14:02:01.438Z,6.95
2022-12-12T14:04:43.823Z,2.05
2022-12-12T14:07:18.029Z,4.53
2022-12-12T14:09:56.839Z,4.85
2022-12-12T14:12:31.568Z,5.82
2022-12-12T14:15:00.210Z,5.22
2022-12-12T14:17:30.431Z,6.70
2022-12-12T14:19:59.407Z,6.10
2022-12-12T14:22:46.403Z,6.72
2022-12-12T14:25:17.151Z,6.75
2022-12-12T14:27:49.909Z,5.22
2022-12-12T14:30:44.943Z,6.88
2022-12-12T14:33:17.774Z,5.25
2022-12-12T14:36:03.870Z,7.35
2022-12-12T14:38:46.872Z,6.75
2022-12-12T14:41:21.237Z,6.88
2022-12-12T14:44:37.421Z,7.78
2022-12-12T14:46:43.574Z,5.55
2022-12-12T14:49:16.410Z,5.78
2022-12-12T14:51:45.775Z,7.28
2022-12-12T14:54:19.463Z,6.90
2022-12-12T14:56:52.964Z,4.55
2022-12-12T14:59:23.035Z,6.45
2022-12-12T15:02:25.776Z,5.53
2022-12-12T15:05:04.353Z,6.38
2022-12-12T15:07:41.049Z,6.15
2022-12-12T15:10:27.472Z,5.18
2022-12-12T15:12:54.546Z,4.25
2022-12-12T15:15:27.456Z,5.63
2022-12-12T15:17:57.092Z,4.80
2022-12-12T15:20:30.415Z,5.05
2022-12-12T15:23:07.409Z,5.50
2022-12-12T15:25:47.278Z,6.40
2022-12-12T15:28:19.294Z,7.00
2022-12-12T15:30:50.148Z,5.80
2022-12-12T15:33:23.708Z,7.10
2022-12-12T15:36:05.222Z,7.40
2022-12-12T15:38:33.680Z,6.97
2022-12-12T15:41:06.668Z,6.85
2022-12-12T15:43:37.274Z,5.15
2022-12-12T15:46:14.144Z,6.40
2022-12-12T15:48:49.695Z,6.60
2022-12-12T15:51:24.288Z,6.35
2022-12-12T15:53:53.220Z,6.07
2022-12-12T15:56:19.919Z,6.50
2022-12-12T15:58:49.711Z,4.45
2022-12-12T16:01:20.766Z,5.30
2022-12-12T16:04:09.828Z,5.13
2022-12-12T16:06:45.904Z,4.20
2022-12-12T16:09:27.660Z,5.28
2022-12-12T16:11:56.181Z,8.43
2022-12-12T16:14:41.662Z,4.95
2022-12-12T16:17:24.084Z,4.60
2022-12-12T16:20:13.862Z,5.15
2022-12-12T16:22:48.276Z,5.18
2022-12-12T16:25:23.661Z,5.40
2022-12-12T16:28:08.111Z,5.80
2022-12-12T16:30:37.012Z,5.20
2022-12-12T16:33:38.960Z,7.63
2022-12-12T16:36:13.006Z,6.75
2022-12-12T16:38:41.140Z,6.13
2022-12-12T16:41:13.186Z,6.20
2022-12-12T16:43:40.476Z,7.70
2022-12-12T16:46:21.143Z,5.72
2022-12-12T16:48:48.287Z,3.67
2022-12-12T16:51:28.366Z,3.47
2022-12-12T16:53:55.542Z,5.25
2022-12-12T16:56:22.711Z,5.55
2022-12-12T16:58:50.475Z,6.10
2022-12-12T17:01:17.389Z,4.72
2022-12-12T17:03:44.267Z,4.97
2022-12-12T17:06:11.358Z,4.55
2022-12-12T17:08:38.594Z,4.13
2022-12-12T17:11:10.055Z,5.20
2022-12-12T17:13:48.317Z,4.10
2022-12-12T17:16:16.082Z,4.45
2022-12-12T17:18:42.935Z,4.10
2022-12-12T17:21:09.836Z,4.32
2022-12-12T17:23:36.724Z,3.50
2022-12-12T17:26:04.933Z,2.60
2022-12-12T17:28:34.033Z,3.75
2022-12-12T17:31:02.225Z,5.35
2022-12-12T17:33:29.072Z,4.88
2022-12-12T17:36:01.686Z,4.55
2022-12-12T17:38:30.601Z,2.53
2022-12-12T17:40:58.594Z,3.20
2022-12-12T17:43:26.089Z,4.35
2022-12-12T17:46:05.434Z,5.00
2022-12-12T17:48:35.114Z,5.30
2022-12-12T17:51:05.591Z,4.45
2022-12-12T17:53:38.600Z,5.20
2022-12-12T17:56:17.747Z,4.70
2022-12-12T17:58:47.495Z,5.57
2022-12-12T18:01:31.544Z,3.10
2022-12-12T18:04:01.210Z,4.18
2022-12-12T18:06:31.552Z,2.88
2022-12-12T18:08:58.762Z,4.55
2022-12-12T18:11:32.824Z,4.70
2022-12-12T18:14:07.725Z,5.90
2022-12-12T18:16:43.489Z,5.35
2022-12-12T18:19:38.589Z,5.25
2022-12-12T18:22:05.428Z,6.25
2022-12-12T18:24:33.082Z,5.47
2022-12-12T18:27:03.293Z,5.60
2022-12-12T18:29:30.229Z,5.45
2022-12-12T18:32:00.064Z,6.38
2022-12-12T18:34:30.918Z,5.70
2022-12-12T18:36:59.141Z,5.82
2022-12-12T18:39:26.066Z,8.40
2022-12-12T18:41:52.930Z,7.85
2022-12-12T18:44:19.830Z,6.55
2022-12-12T18:46:48.011Z,8.05
2022-12-12T18:49:15.967Z,5.45
2022-12-12T18:51:44.657Z,6.28
2022-12-12T18:54:15.350Z,5.15
2022-12-12T18:56:45.673Z,6.85
2022-12-12T18:59:13.409Z,5.78
2022-12-12T19:01:40.295Z,8.05
2022-12-12T19:04:12.537Z,4.82
2022-12-12T19:06:43.004Z,7.45
2022-12-12T19:09:16.299Z,5.18
2022-12-12T19:11:44.298Z,6.82
2022-12-12T19:14:13.375Z,6.85
2022-12-12T19:16:40.770Z,5.50
2022-12-12T19:19:09.563Z,5.35
2022-12-12T19:21:37.439Z,5.88
2022-12-12T19:24:09.094Z,6.82
2022-12-12T19:26:37.563Z,6.13
2022-12-12T19:29:12.298Z,7.10
2022-12-12T19:31:40.152Z,6.78
2022-12-12T19:34:09.073Z,4.40
2022-12-12T19:36:36.109Z,8.18
2022-12-12T19:39:06.632Z,8.38
2022-12-12T19:41:35.164Z,8.60
2022-12-12T19:44:04.222Z,6.45
2022-12-12T19:46:32.786Z,8.35
2022-12-12T19:49:07.251Z,6.43
2022-12-12T19:51:37.288Z,6.30
2022-12-12T19:54:09.036Z,6.07
2022-12-12T19:56:38.368Z,5.85
2022-12-12T19:59:05.283Z,6.65
2022-12-12T20:01:35.188Z,6.10
2022-12-12T20:04:12.302Z,5.95
2022-12-12T20:06:45.597Z,5.57
2022-12-12T20:09:19.915Z,6.55
2022-12-12T20:11:47.705Z,5.70
2022-12-12T20:14:21.736Z,7.78
2022-12-12T20:16:50.273Z,6.95
2022-12-12T20:19:17.969Z,7.70
2022-12-12T20:22:03.268Z,6.60
2022-12-12T20:24:33.182Z,7.45
2022-12-12T20:27:03.058Z,6.82
2022-12-12T20:29:29.995Z,6.38
2022-12-12T20:31:59.561Z,6.38
2022-12-12T20:34:26.466Z,6.05
2022-12-12T20:36:55.522Z,5.88
2022-12-12T20:39:24.626Z,5.88
2022-12-12T20:41:56.561Z,5.82
2022-12-12T20:44:28.895Z,6.68
2022-12-12T20:46:55.721Z,6.18
2022-12-12T20:49:23.804Z,6.60
2022-12-12T20:51:55.767Z,4.82
2022-12-12T20:54:25.971Z,6.50
2022-12-12T20:56:54.392Z,6.03
2022-12-12T20:59:21.436Z,5.90
2022-12-12T21:01:48.366Z,6.07
2022-12-12T21:04:15.621Z,6.05
2022-12-12T21:06:47.707Z,6.25
2022-12-12T21:09:19.428Z,7.25
2022-12-12T21:11:49.823Z,5.05
2022-12-12T21:14:16.937Z,5.03
2022-12-12T21:16:43.870Z,4.03
2022-12-12T21:19:13.580Z,2.88
2022-12-12T21:21:43.421Z,7.05
2022-12-12T21:24:12.698Z,4.85
2022-12-12T21:26:39.612Z,3.80
2022-12-12T21:29:06.780Z,3.50
2022-12-12T21:31:38.615Z,4.13
2022-12-12T21:34:06.361Z,5.05
2022-12-12T21:36:34.323Z,4.93
2022-12-12T21:39:03.460Z,3.85
2022-12-12T21:41:30.384Z,4.90
2022-12-12T21:43:59.502Z,5.20
2022-12-12T21:46:28.385Z,4.90
2022-12-12T21:49:15.849Z,5.57
2022-12-12T21:51:43.228Z,6.18
2022-12-12T21:54:12.817Z,4.15
2022-12-12T21:56:40.990Z,5.90
2022-12-12T21:59:08.522Z,3.58
2022-12-12T22:01:35.455Z,6.03
2022-12-12T22:04:02.758Z,6.28
2022-12-12T22:06:32.740Z,6.82
2022-12-12T22:09:01.848Z,6.63
2022-12-12T22:11:41.851Z,6.72
2022-12-12T22:14:20.115Z,8.27
2022-12-12T22:16:46.927Z,6.63
2022-12-12T22:19:15.919Z,8.20
2022-12-12T22:21:46.352Z,8.27
2022-12-12T22:24:13.875Z,7.25
2022-12-12T22:26:45.429Z,7.93
2022-12-12T22:29:16.188Z,10.50
2022-12-12T22:31:44.683Z,9.45
2022-12-12T22:34:18.016Z,8.95
2022-12-12T22:36:46.163Z,8.65
2022-12-12T22:39:17.793Z,7.72
2022-12-12T22:41:45.650Z,7.00
2022-12-12T22:44:15.982Z,7.85
2022-12-12T22:46:44.990Z,8.10
2022-12-12T22:49:14.972Z,6.65
2022-12-12T22:51:42.930Z,6.75
2022-12-12T22:54:09.888Z,7.75
2022-12-12T22:56:38.360Z,6.10
2022-12-12T22:59:06.676Z,4.95
2022-12-12T23:01:33.956Z,5.30
2022-12-12T23:04:01.194Z,6.00
2022-12-12T23:06:33.912Z,5.60
2022-12-12T23:09:07.269Z,6.70
2022-12-12T23:11:35.622Z,5.65
2022-12-12T23:14:09.257Z,5.85
2022-12-12T23:16:36.470Z,6.03
2022-12-12T23:19:05.807Z,6.68
2022-12-12T23:21:34.754Z,6.97
2022-12-12T23:24:02.861Z,6.43
2022-12-12T23:26:35.149Z,6.30
2022-12-12T23:29:02.770Z,6.30
2022-12-12T23:31:32.734Z,7.03
2022-12-12T23:34:05.542Z,6.40
2022-12-12T23:36:32.713Z,4.95
2022-12-12T23:39:03.993Z,5.15
2022-12-12T23:41:30.819Z,4.85
2022-12-12T23:43:57.747Z,4.10
2022-12-12T23:46:28.439Z,4.88
2022-12-12T23:49:01.701Z,4.45
2022-12-12T23:51:36.145Z,5.53
2022-12-12T23:54:06.973Z,5.63
2022-12-12T23:56:34.008Z,4.90
2022-12-12T23:59:01.120Z,3.35
